sensor_id;sensor_type;location;lat;lon;timestamp;P1;durP1;ratioP1;P2;durP2;ratioP2
17886;SDS011;9069;52.044;7.472;2022-08-20T00:00:42;10.60;;;8.05;;
17886;SDS011;9069;52.044;7.472;2022-08-20T00:03:18;10.15;;;8.07;;
17886;SDS011;9069;52.044;7.472;2022-08-20T00:05:57;11.18;;;8.32;;
17886;SDS011;9069;52.044;7.472;2022-08-20T00:08:25;12.63;;;7.85;;
17886;SDS011;9069;52.044;7.472;2022-08-20T00:10:52;11.90;;;8.07;;
17886;SDS011;9069;52.044;7.472;2022-08-20T00:13:22;12.27;;;8.63;;
17886;SDS011;9069;52.044;7.472;2022-08-20T00:15:51;14.38;;;8.43;;
17886;SDS011;9069;52.044;7.472;2022-08-20T00:18:19;10.82;;;6.78;;
17886;SDS011;9069;52.044;7.472;2022-08-20T00:20:47;8.00;;;6.68;;
17886;SDS011;9069;52.044;7.472;2022-08-20T00:23:16;8.05;;;6.47;;
17886;SDS011;9069;52.044;7.472;2022-08-20T00:25:44;9.93;;;6.68;;
17886;SDS011;9069;52.044;7.472;2022-08-20T00:28:11;6.35;;;4.90;;
17886;SDS011;9069;52.044;7.472;2022-08-20T00:30:40;7.07;;;4.53;;
17886;SDS011;9069;52.044;7.472;2022-08-20T00:33:10;8.68;;;5.20;;
17886;SDS011;9069;52.044;7.472;2022-08-20T00:35:43;5.32;;;4.43;;
17886;SDS011;9069;52.044;7.472;2022-08-20T00:38:13;5.60;;;3.78;;
17886;SDS011;9069;52.044;7.472;2022-08-20T00:40:42;6.10;;;3.95;;
17886;SDS011;9069;52.044;7.472;2022-08-20T00:43:25;5.55;;;4.05;;
17886;SDS011;9069;52.044;7.472;2022-08-20T00:46:02;8.18;;;3.97;;
17886;SDS011;9069;52.044;7.472;2022-08-20T00:48:35;5.43;;;4.25;;
17886;SDS011;9069;52.044;7.472;2022-08-20T00:51:11;3.83;;;3.20;;
17886;SDS011;9069;52.044;7.472;2022-08-20T00:53:46;4.53;;;3.13;;
17886;SDS011;9069;52.044;7.472;2022-08-20T00:56:13;4.40;;;3.40;;
17886;SDS011;9069;52.044;7.472;2022-08-20T00:58:40;5.47;;;3.00;;
17886;SDS011;9069;52.044;7.472;2022-08-20T01:01:10;6.03;;;2.90;;
17886;SDS011;9069;52.044;7.472;2022-08-20T01:03:37;3.92;;;3.38;;
17886;SDS011;9069;52.044;7.472;2022-08-20T01:06:07;4.10;;;3.20;;
17886;SDS011;9069;52.044;7.472;2022-08-20T01:08:37;5.32;;;4.18;;
17886;SDS011;9069;52.044;7.472;2022-08-20T01:11:05;5.10;;;3.97;;
17886;SDS011;9069;52.044;7.472;2022-08-20T01:13:36;7.22;;;4.60;;
17886;SDS011;9069;52.044;7.472;2022-08-20T01:16:07;6.22;;;4.38;;
17886;SDS011;9069;52.044;7.472;2022-08-20T01:18:43;10.45;;;5.43;;
17886;SDS011;9069;52.044;7.472;2022-08-20T01:21:13;7.20;;;5.05;;
17886;SDS011;9069;52.044;7.472;2022-08-20T01:23:45;6.53;;;4.82;;
17886;SDS011;9069;52.044;7.472;2022-08-20T01:26:22;9.25;;;5.95;;
17886;SDS011;9069;52.044;7.472;2022-08-20T01:29:03;7.60;;;5.72;;
17886;SDS011;9069;52.044;7.472;2022-08-20T01:31:39;7.55;;;5.72;;
17886;SDS011;9069;52.044;7.472;2022-08-20T01:34:09;6.93;;;5.45;;
17886;SDS011;9069;52.044;7.472;2022-08-20T01:36:39;6.82;;;5.20;;
17886;SDS011;9069;52.044;7.472;2022-08-20T01:39:12;7.07;;;5.65;;
17886;SDS011;9069;52.044;7.472;2022-08-20T01:41:51;7.50;;;5.90;;
17886;SDS011;9069;52.044;7.472;2022-08-20T01:44:21;6.50;;;5.80;;
17886;SDS011;9069;52.044;7.472;2022-08-20T01:46:51;7.40;;;5.15;;
17886;SDS011;9069;52.044;7.472;2022-08-20T01:49:24;6.95;;;5.22;;
17886;SDS011;9069;52.044;7.472;2022-08-20T01:51:54;5.63;;;4.95;;
17886;SDS011;9069;52.044;7.472;2022-08-20T01:54:24;6.53;;;5.00;;
17886;SDS011;9069;52.044;7.472;2022-08-20T01:59:47;6.43;;;5.30;;
17886;SDS011;9069;52.044;7.472;2022-08-20T02:02:15;7.13;;;5.07;;
17886;SDS011;9069;52.044;7.472;2022-08-20T02:04:42;7.05;;;5.10;;
17886;SDS011;9069;52.044;7.472;2022-08-20T02:07:15;5.43;;;4.90;;
17886;SDS011;9069;52.044;7.472;2022-08-20T02:09:44;6.68;;;4.75;;
17886;SDS011;9069;52.044;7.472;2022-08-20T02:12:12;8.13;;;5.35;;
17886;SDS011;9069;52.044;7.472;2022-08-20T02:14:40;7.78;;;5.25;;
17886;SDS011;9069;52.044;7.472;2022-08-20T02:17:09;8.77;;;5.07;;
17886;SDS011;9069;52.044;7.472;2022-08-20T02:19:41;7.43;;;5.70;;
17886;SDS011;9069;52.044;7.472;2022-08-20T02:22:21;6.00;;;5.40;;
17886;SDS011;9069;52.044;7.472;2022-08-20T02:24:51;5.82;;;4.93;;
17886;SDS011;9069;52.044;7.472;2022-08-20T02:27:19;6.03;;;4.95;;
17886;SDS011;9069;52.044;7.472;2022-08-20T02:29:49;8.00;;;5.78;;
17886;SDS011;9069;52.044;7.472;2022-08-20T02:32:17;6.25;;;4.85;;
17886;SDS011;9069;52.044;7.472;2022-08-20T02:34:58;6.03;;;5.18;;
17886;SDS011;9069;52.044;7.472;2022-08-20T02:37:27;5.28;;;4.78;;
17886;SDS011;9069;52.044;7.472;2022-08-20T02:39:54;5.70;;;4.57;;
17886;SDS011;9069;52.044;7.472;2022-08-20T02:42:21;5.38;;;4.88;;
17886;SDS011;9069;52.044;7.472;2022-08-20T02:44:48;6.25;;;5.18;;
17886;SDS011;9069;52.044;7.472;2022-08-20T02:47:14;7.28;;;5.45;;
17886;SDS011;9069;52.044;7.472;2022-08-20T02:49:42;5.82;;;5.22;;
17886;SDS011;9069;52.044;7.472;2022-08-20T02:52:09;9.15;;;6.57;;
17886;SDS011;9069;52.044;7.472;2022-08-20T02:54:35;6.18;;;5.07;;
17886;SDS011;9069;52.044;7.472;2022-08-20T02:57:02;6.25;;;4.53;;
17886;SDS011;9069;52.044;7.472;2022-08-20T02:59:30;9.50;;;5.60;;
17886;SDS011;9069;52.044;7.472;2022-08-20T03:01:56;9.85;;;5.93;;
17886;SDS011;9069;52.044;7.472;2022-08-20T03:04:29;7.35;;;4.88;;
17886;SDS011;9069;52.044;7.472;2022-08-20T03:06:56;8.10;;;5.13;;
17886;SDS011;9069;52.044;7.472;2022-08-20T03:09:23;5.75;;;4.90;;
17886;SDS011;9069;52.044;7.472;2022-08-20T03:11:50;6.05;;;5.40;;
17886;SDS011;9069;52.044;7.472;2022-08-20T03:14:20;5.65;;;4.95;;
17886;SDS011;9069;52.044;7.472;2022-08-20T03:16:47;8.45;;;5.68;;
17886;SDS011;9069;52.044;7.472;2022-08-20T03:19:14;5.35;;;4.80;;
17886;SDS011;9069;52.044;7.472;2022-08-20T03:21:41;5.13;;;4.63;;
17886;SDS011;9069;52.044;7.472;2022-08-20T03:24:08;5.57;;;5.00;;
17886;SDS011;9069;52.044;7.472;2022-08-20T03:26:35;5.82;;;4.93;;
17886;SDS011;9069;52.044;7.472;2022-08-20T03:29:01;6.90;;;5.75;;
17886;SDS011;9069;52.044;7.472;2022-08-20T03:31:29;7.70;;;5.55;;
17886;SDS011;9069;52.044;7.472;2022-08-20T03:33:56;6.57;;;5.45;;
17886;SDS011;9069;52.044;7.472;2022-08-20T03:36:23;6.68;;;5.10;;
17886;SDS011;9069;52.044;7.472;2022-08-20T03:38:59;6.65;;;5.38;;
17886;SDS011;9069;52.044;7.472;2022-08-20T03:41:28;7.88;;;5.38;;
17886;SDS011;9069;52.044;7.472;2022-08-20T03:43:57;7.85;;;4.93;;
17886;SDS011;9069;52.044;7.472;2022-08-20T03:46:24;6.70;;;5.35;;
17886;SDS011;9069;52.044;7.472;2022-08-20T03:48:51;7.25;;;5.05;;
17886;SDS011;9069;52.044;7.472;2022-08-20T03:51:28;7.35;;;6.38;;
17886;SDS011;9069;52.044;7.472;2022-08-20T03:53:56;6.50;;;5.18;;
17886;SDS011;9069;52.044;7.472;2022-08-20T03:56:24;5.72;;;5.13;;
17886;SDS011;9069;52.044;7.472;2022-08-20T03:58:51;6.80;;;5.95;;
17886;SDS011;9069;52.044;7.472;2022-08-20T04:01:18;8.07;;;6.00;;
17886;SDS011;9069;52.044;7.472;2022-08-20T04:04:05;7.63;;;5.32;;
17886;SDS011;9069;52.044;7.472;2022-08-20T04:06:38;7.50;;;5.72;;
17886;SDS011;9069;52.044;7.472;2022-08-20T04:09:07;6.63;;;5.43;;
17886;SDS011;9069;52.044;7.472;2022-08-20T04:11:36;7.30;;;5.32;;
17886;SDS011;9069;52.044;7.472;2022-08-20T04:14:03;7.63;;;5.95;;
17886;SDS011;9069;52.044;7.472;2022-08-20T04:16:30;7.65;;;6.05;;
17886;SDS011;9069;52.044;7.472;2022-08-20T04:18:58;7.95;;;6.32;;
17886;SDS011;9069;52.044;7.472;2022-08-20T04:21:31;8.68;;;6.55;;
17886;SDS011;9069;52.044;7.472;2022-08-20T04:23:59;7.85;;;6.47;;
17886;SDS011;9069;52.044;7.472;2022-08-20T04:26:28;7.68;;;6.80;;
17886;SDS011;9069;52.044;7.472;2022-08-20T04:28:55;8.15;;;6.25;;
17886;SDS011;9069;52.044;7.472;2022-08-20T04:31:22;7.78;;;5.50;;
17886;SDS011;9069;52.044;7.472;2022-08-20T04:34:01;7.32;;;6.55;;
17886;SDS011;9069;52.044;7.472;2022-08-20T04:36:29;8.15;;;5.95;;
17886;SDS011;9069;52.044;7.472;2022-08-20T04:38:56;10.40;;;6.60;;
17886;SDS011;9069;52.044;7.472;2022-08-20T04:41:23;9.80;;;6.78;;
17886;SDS011;9069;52.044;7.472;2022-08-20T04:43:53;8.48;;;6.93;;
17886;SDS011;9069;52.044;7.472;2022-08-20T04:46:21;9.88;;;7.00;;
17886;SDS011;9069;52.044;7.472;2022-08-20T04:48:51;8.43;;;6.40;;
17886;SDS011;9069;52.044;7.472;2022-08-20T04:51:18;10.70;;;6.72;;
17886;SDS011;9069;52.044;7.472;2022-08-20T04:53:48;9.60;;;6.47;;
17886;SDS011;9069;52.044;7.472;2022-08-20T04:56:19;7.82;;;6.68;;
17886;SDS011;9069;52.044;7.472;2022-08-20T04:58:49;8.48;;;6.65;;
17886;SDS011;9069;52.044;7.472;2022-08-20T05:01:17;8.38;;;6.80;;
17886;SDS011;9069;52.044;7.472;2022-08-20T05:03:44;8.55;;;6.72;;
17886;SDS011;9069;52.044;7.472;2022-08-20T05:06:15;11.32;;;7.38;;
17886;SDS011;9069;52.044;7.472;2022-08-20T05:08:43;10.32;;;7.47;;
17886;SDS011;9069;52.044;7.472;2022-08-20T05:11:10;9.35;;;7.15;;
17886;SDS011;9069;52.044;7.472;2022-08-20T05:13:57;9.80;;;7.45;;
17886;SDS011;9069;52.044;7.472;2022-08-20T05:16:24;10.77;;;7.97;;
17886;SDS011;9069;52.044;7.472;2022-08-20T05:18:50;8.63;;;7.72;;
17886;SDS011;9069;52.044;7.472;2022-08-20T05:21:18;8.57;;;7.50;;
17886;SDS011;9069;52.044;7.472;2022-08-20T05:23:45;12.82;;;9.02;;
17886;SDS011;9069;52.044;7.472;2022-08-20T05:26:12;13.32;;;7.43;;
17886;SDS011;9069;52.044;7.472;2022-08-20T05:28:41;10.73;;;8.23;;
17886;SDS011;9069;52.044;7.472;2022-08-20T05:31:25;10.38;;;7.95;;
17886;SDS011;9069;52.044;7.472;2022-08-20T05:34:08;13.85;;;7.45;;
17886;SDS011;9069;52.044;7.472;2022-08-20T05:36:38;11.07;;;7.57;;
17886;SDS011;9069;52.044;7.472;2022-08-20T05:39:12;8.70;;;7.20;;
17886;SDS011;9069;52.044;7.472;2022-08-20T05:41:39;12.90;;;7.93;;
17886;SDS011;9069;52.044;7.472;2022-08-20T05:44:07;13.45;;;8.38;;
17886;SDS011;9069;52.044;7.472;2022-08-20T05:46:36;11.77;;;8.57;;
17886;SDS011;9069;52.044;7.472;2022-08-20T05:49:06;11.40;;;7.93;;
17886;SDS011;9069;52.044;7.472;2022-08-20T05:51:34;9.13;;;7.35;;
17886;SDS011;9069;52.044;7.472;2022-08-20T05:54:02;10.35;;;7.88;;
17886;SDS011;9069;52.044;7.472;2022-08-20T05:56:30;11.50;;;8.15;;
17886;SDS011;9069;52.044;7.472;2022-08-20T05:58:58;11.05;;;7.78;;
17886;SDS011;9069;52.044;7.472;2022-08-20T06:01:32;10.07;;;8.02;;
17886;SDS011;9069;52.044;7.472;2022-08-20T06:04:00;11.43;;;8.35;;
17886;SDS011;9069;52.044;7.472;2022-08-20T06:06:47;10.65;;;8.40;;
17886;SDS011;9069;52.044;7.472;2022-08-20T06:09:14;11.18;;;7.95;;
17886;SDS011;9069;52.044;7.472;2022-08-20T06:11:56;12.73;;;8.07;;
17886;SDS011;9069;52.044;7.472;2022-08-20T06:14:24;13.38;;;8.18;;
17886;SDS011;9069;52.044;7.472;2022-08-20T06:16:51;12.38;;;8.05;;
17886;SDS011;9069;52.044;7.472;2022-08-20T06:19:24;9.77;;;7.85;;
17886;SDS011;9069;52.044;7.472;2022-08-20T06:21:52;10.70;;;7.95;;
17886;SDS011;9069;52.044;7.472;2022-08-20T06:24:19;11.80;;;8.18;;
17886;SDS011;9069;52.044;7.472;2022-08-20T06:26:46;12.68;;;8.82;;
17886;SDS011;9069;52.044;7.472;2022-08-20T06:29:14;10.00;;;7.50;;
17886;SDS011;9069;52.044;7.472;2022-08-20T06:31:41;12.05;;;8.32;;
17886;SDS011;9069;52.044;7.472;2022-08-20T06:34:07;9.40;;;7.47;;
17886;SDS011;9069;52.044;7.472;2022-08-20T06:36:34;9.13;;;7.60;;
17886;SDS011;9069;52.044;7.472;2022-08-20T06:39:01;10.82;;;7.57;;
17886;SDS011;9069;52.044;7.472;2022-08-20T06:41:28;11.13;;;8.52;;
17886;SDS011;9069;52.044;7.472;2022-08-20T06:44:01;10.70;;;7.40;;
17886;SDS011;9069;52.044;7.472;2022-08-20T06:46:28;10.57;;;7.22;;
17886;SDS011;9069;52.044;7.472;2022-08-20T06:48:55;9.77;;;7.50;;
17886;SDS011;9069;52.044;7.472;2022-08-20T06:51:22;11.35;;;7.75;;
17886;SDS011;9069;52.044;7.472;2022-08-20T06:53:48;13.10;;;7.03;;
17886;SDS011;9069;52.044;7.472;2022-08-20T06:56:15;12.48;;;7.85;;
17886;SDS011;9069;52.044;7.472;2022-08-20T06:58:42;11.85;;;7.53;;
17886;SDS011;9069;52.044;7.472;2022-08-20T07:01:09;12.68;;;7.60;;
17886;SDS011;9069;52.044;7.472;2022-08-20T07:03:37;11.88;;;7.45;;
17886;SDS011;9069;52.044;7.472;2022-08-20T07:06:08;9.38;;;7.47;;
17886;SDS011;9069;52.044;7.472;2022-08-20T07:08:35;12.38;;;7.38;;
17886;SDS011;9069;52.044;7.472;2022-08-20T07:11:01;8.65;;;7.38;;
17886;SDS011;9069;52.044;7.472;2022-08-20T07:13:28;11.98;;;7.40;;
17886;SDS011;9069;52.044;7.472;2022-08-20T07:15:55;10.23;;;7.20;;
17886;SDS011;9069;52.044;7.472;2022-08-20T07:18:22;8.10;;;6.30;;
17886;SDS011;9069;52.044;7.472;2022-08-20T07:20:54;7.93;;;6.40;;
17886;SDS011;9069;52.044;7.472;2022-08-20T07:23:23;9.07;;;6.28;;
17886;SDS011;9069;52.044;7.472;2022-08-20T07:25:51;9.35;;;6.53;;
17886;SDS011;9069;52.044;7.472;2022-08-20T07:28:19;8.68;;;5.40;;
17886;SDS011;9069;52.044;7.472;2022-08-20T07:30:47;7.38;;;5.60;;
17886;SDS011;9069;52.044;7.472;2022-08-20T07:33:39;6.43;;;5.07;;
17886;SDS011;9069;52.044;7.472;2022-08-20T07:36:07;7.07;;;5.25;;
17886;SDS011;9069;52.044;7.472;2022-08-20T07:38:35;6.93;;;5.05;;
17886;SDS011;9069;52.044;7.472;2022-08-20T07:41:03;7.03;;;4.97;;
17886;SDS011;9069;52.044;7.472;2022-08-20T07:43:33;8.38;;;5.70;;
17886;SDS011;9069;52.044;7.472;2022-08-20T07:46:00;9.23;;;6.20;;
17886;SDS011;9069;52.044;7.472;2022-08-20T07:48:34;10.25;;;6.38;;
17886;SDS011;9069;52.044;7.472;2022-08-20T07:51:05;8.45;;;6.88;;
17886;SDS011;9069;52.044;7.472;2022-08-20T07:53:35;10.27;;;6.68;;
17886;SDS011;9069;52.044;7.472;2022-08-20T07:56:04;7.70;;;5.97;;
17886;SDS011;9069;52.044;7.472;2022-08-20T07:58:34;9.60;;;6.05;;
17886;SDS011;9069;52.044;7.472;2022-08-20T08:01:04;11.65;;;6.45;;
17886;SDS011;9069;52.044;7.472;2022-08-20T08:03:32;5.25;;;4.75;;
17886;SDS011;9069;52.044;7.472;2022-08-20T08:06:14;7.55;;;5.07;;
17886;SDS011;9069;52.044;7.472;2022-08-20T08:09:09;6.45;;;5.20;;
17886;SDS011;9069;52.044;7.472;2022-08-20T08:11:40;7.65;;;4.63;;
17886;SDS011;9069;52.044;7.472;2022-08-20T08:14:13;5.55;;;4.40;;
17886;SDS011;9069;52.044;7.472;2022-08-20T08:16:44;5.78;;;3.80;;
17886;SDS011;9069;52.044;7.472;2022-08-20T08:19:11;3.83;;;3.15;;
17886;SDS011;9069;52.044;7.472;2022-08-20T08:21:41;9.20;;;3.70;;
17886;SDS011;9069;52.044;7.472;2022-08-20T08:24:09;4.60;;;3.70;;
17886;SDS011;9069;52.044;7.472;2022-08-20T08:26:44;4.47;;;4.00;;
17886;SDS011;9069;52.044;7.472;2022-08-20T08:29:11;8.07;;;3.50;;
17886;SDS011;9069;52.044;7.472;2022-08-20T08:31:38;4.85;;;3.63;;
17886;SDS011;9069;52.044;7.472;2022-08-20T08:34:06;4.43;;;3.22;;
17886;SDS011;9069;52.044;7.472;2022-08-20T08:36:33;7.35;;;2.72;;
17886;SDS011;9069;52.044;7.472;2022-08-20T08:39:00;3.50;;;2.83;;
17886;SDS011;9069;52.044;7.472;2022-08-20T08:41:32;4.65;;;2.85;;
17886;SDS011;9069;52.044;7.472;2022-08-20T08:44:04;3.83;;;2.55;;
17886;SDS011;9069;52.044;7.472;2022-08-20T08:46:39;3.20;;;2.70;;
17886;SDS011;9069;52.044;7.472;2022-08-20T08:49:12;4.45;;;2.60;;
17886;SDS011;9069;52.044;7.472;2022-08-20T08:51:42;2.92;;;2.15;;
17886;SDS011;9069;52.044;7.472;2022-08-20T08:54:14;4.15;;;2.40;;
17886;SDS011;9069;52.044;7.472;2022-08-20T08:56:43;2.45;;;1.92;;
17886;SDS011;9069;52.044;7.472;2022-08-20T08:59:16;4.15;;;1.80;;
17886;SDS011;9069;52.044;7.472;2022-08-20T09:01:44;2.80;;;2.20;;
17886;SDS011;9069;52.044;7.472;2022-08-20T09:04:22;3.05;;;1.90;;
17886;SDS011;9069;52.044;7.472;2022-08-20T09:06:56;3.55;;;2.20;;
17886;SDS011;9069;52.044;7.472;2022-08-20T09:09:28;2.92;;;1.77;;
17886;SDS011;9069;52.044;7.472;2022-08-20T09:12:06;2.50;;;1.42;;
17886;SDS011;9069;52.044;7.472;2022-08-20T09:14:36;2.47;;;1.60;;
17886;SDS011;9069;52.044;7.472;2022-08-20T09:17:04;2.67;;;1.58;;
17886;SDS011;9069;52.044;7.472;2022-08-20T09:19:31;2.63;;;1.27;;
17886;SDS011;9069;52.044;7.472;2022-08-20T09:21:58;2.28;;;1.73;;
17886;SDS011;9069;52.044;7.472;2022-08-20T09:24:31;5.38;;;2.00;;
17886;SDS011;9069;52.044;7.472;2022-08-20T09:26:58;4.28;;;2.03;;
17886;SDS011;9069;52.044;7.472;2022-08-20T09:29:24;3.00;;;2.08;;
17886;SDS011;9069;52.044;7.472;2022-08-20T09:32:02;3.60;;;1.77;;
17886;SDS011;9069;52.044;7.472;2022-08-20T09:34:48;2.67;;;2.10;;
17886;SDS011;9069;52.044;7.472;2022-08-20T09:37:21;1.77;;;1.42;;
17886;SDS011;9069;52.044;7.472;2022-08-20T09:39:50;3.70;;;1.65;;
17886;SDS011;9069;52.044;7.472;2022-08-20T09:42:18;1.90;;;1.60;;
17886;SDS011;9069;52.044;7.472;2022-08-20T09:44:48;3.58;;;1.90;;
17886;SDS011;9069;52.044;7.472;2022-08-20T09:47:15;4.63;;;2.08;;
17886;SDS011;9069;52.044;7.472;2022-08-20T09:49:43;3.95;;;1.98;;
17886;SDS011;9069;52.044;7.472;2022-08-20T09:52:17;7.45;;;1.63;;
17886;SDS011;9069;52.044;7.472;2022-08-20T09:54:50;3.47;;;1.80;;
17886;SDS011;9069;52.044;7.472;2022-08-20T09:57:20;1.60;;;1.13;;
17886;SDS011;9069;52.044;7.472;2022-08-20T09:59:49;4.63;;;2.30;;
17886;SDS011;9069;52.044;7.472;2022-08-20T10:02:18;2.72;;;1.65;;
17886;SDS011;9069;52.044;7.472;2022-08-20T10:04:45;5.15;;;2.08;;
17886;SDS011;9069;52.044;7.472;2022-08-20T10:07:13;6.90;;;1.92;;
17886;SDS011;9069;52.044;7.472;2022-08-20T10:09:41;2.72;;;2.03;;
17886;SDS011;9069;52.044;7.472;2022-08-20T10:12:08;2.85;;;1.92;;
17886;SDS011;9069;52.044;7.472;2022-08-20T10:14:35;6.25;;;2.30;;
17886;SDS011;9069;52.044;7.472;2022-08-20T10:17:02;2.60;;;1.60;;
17886;SDS011;9069;52.044;7.472;2022-08-20T10:19:29;4.80;;;2.20;;
17886;SDS011;9069;52.044;7.472;2022-08-20T10:21:56;5.13;;;2.00;;
17886;SDS011;9069;52.044;7.472;2022-08-20T10:24:24;3.42;;;2.00;;
17886;SDS011;9069;52.044;7.472;2022-08-20T10:26:53;5.32;;;2.58;;
17886;SDS011;9069;52.044;7.472;2022-08-20T10:29:25;3.72;;;1.98;;
17886;SDS011;9069;52.044;7.472;2022-08-20T10:31:52;4.93;;;2.10;;
17886;SDS011;9069;52.044;7.472;2022-08-20T10:34:20;4.97;;;1.92;;
17886;SDS011;9069;52.044;7.472;2022-08-20T10:36:48;2.83;;;1.98;;
17886;SDS011;9069;52.044;7.472;2022-08-20T10:39:15;3.47;;;2.20;;
17886;SDS011;9069;52.044;7.472;2022-08-20T10:41:41;3.42;;;1.77;;
17886;SDS011;9069;52.044;7.472;2022-08-20T10:44:08;6.90;;;2.83;;
17886;SDS011;9069;52.044;7.472;2022-08-20T10:46:35;3.97;;;2.25;;
17886;SDS011;9069;52.044;7.472;2022-08-20T10:49:01;4.10;;;2.10;;
17886;SDS011;9069;52.044;7.472;2022-08-20T10:51:28;4.85;;;1.92;;
17886;SDS011;9069;52.044;7.472;2022-08-20T10:53:58;3.97;;;1.75;;
17886;SDS011;9069;52.044;7.472;2022-08-20T10:56:25;2.85;;;1.58;;
17886;SDS011;9069;52.044;7.472;2022-08-20T10:58:52;6.43;;;2.13;;
17886;SDS011;9069;52.044;7.472;2022-08-20T11:01:18;2.58;;;1.65;;
17886;SDS011;9069;52.044;7.472;2022-08-20T11:03:56;5.50;;;1.70;;
17886;SDS011;9069;52.044;7.472;2022-08-20T11:06:23;3.55;;;1.88;;
17886;SDS011;9069;52.044;7.472;2022-08-20T11:08:50;3.03;;;1.77;;
17886;SDS011;9069;52.044;7.472;2022-08-20T11:11:18;4.20;;;1.90;;
17886;SDS011;9069;52.044;7.472;2022-08-20T11:13:44;6.85;;;2.42;;
17886;SDS011;9069;52.044;7.472;2022-08-20T11:16:11;3.83;;;1.55;;
17886;SDS011;9069;52.044;7.472;2022-08-20T11:18:38;4.15;;;1.88;;
17886;SDS011;9069;52.044;7.472;2022-08-20T11:21:08;6.95;;;2.25;;
17886;SDS011;9069;52.044;7.472;2022-08-20T11:23:35;3.45;;;1.85;;
17886;SDS011;9069;52.044;7.472;2022-08-20T11:26:02;5.50;;;1.83;;
17886;SDS011;9069;52.044;7.472;2022-08-20T11:28:28;4.70;;;1.83;;
17886;SDS011;9069;52.044;7.472;2022-08-20T11:30:58;4.00;;;1.70;;
17886;SDS011;9069;52.044;7.472;2022-08-20T11:33:26;9.60;;;1.90;;
17886;SDS011;9069;52.044;7.472;2022-08-20T11:35:53;9.15;;;1.92;;
17886;SDS011;9069;52.044;7.472;2022-08-20T11:38:20;13.80;;;2.40;;
17886;SDS011;9069;52.044;7.472;2022-08-20T11:40:47;7.00;;;2.55;;
17886;SDS011;9069;52.044;7.472;2022-08-20T11:43:14;4.45;;;1.85;;
17886;SDS011;9069;52.044;7.472;2022-08-20T11:45:43;2.67;;;1.50;;
17886;SDS011;9069;52.044;7.472;2022-08-20T11:48:12;4.50;;;1.95;;
17886;SDS011;9069;52.044;7.472;2022-08-20T11:50:39;5.97;;;2.00;;
17886;SDS011;9069;52.044;7.472;2022-08-20T11:53:06;22.63;;;3.03;;
17886;SDS011;9069;52.044;7.472;2022-08-20T11:55:33;21.08;;;2.55;;
17886;SDS011;9069;52.044;7.472;2022-08-20T11:58:00;8.77;;;2.17;;
17886;SDS011;9069;52.044;7.472;2022-08-20T12:00:28;3.97;;;1.65;;
17886;SDS011;9069;52.044;7.472;2022-08-20T12:03:02;3.58;;;1.60;;
17886;SDS011;9069;52.044;7.472;2022-08-20T12:05:35;5.55;;;1.73;;
17886;SDS011;9069;52.044;7.472;2022-08-20T12:08:02;3.42;;;1.70;;
17886;SDS011;9069;52.044;7.472;2022-08-20T12:10:30;11.60;;;2.28;;
17886;SDS011;9069;52.044;7.472;2022-08-20T12:12:57;4.45;;;2.13;;
17886;SDS011;9069;52.044;7.472;2022-08-20T12:15:24;4.53;;;2.17;;
17886;SDS011;9069;52.044;7.472;2022-08-20T12:17:52;5.32;;;1.58;;
17886;SDS011;9069;52.044;7.472;2022-08-20T12:20:20;3.60;;;1.77;;
17886;SDS011;9069;52.044;7.472;2022-08-20T12:22:47;6.35;;;2.03;;
17886;SDS011;9069;52.044;7.472;2022-08-20T12:25:14;2.72;;;1.50;;
17886;SDS011;9069;52.044;7.472;2022-08-20T12:27:41;4.63;;;2.00;;
17886;SDS011;9069;52.044;7.472;2022-08-20T12:30:09;5.97;;;2.22;;
17886;SDS011;9069;52.044;7.472;2022-08-20T12:32:38;6.60;;;1.70;;
17886;SDS011;9069;52.044;7.472;2022-08-20T12:35:06;5.40;;;1.98;;
17886;SDS011;9069;52.044;7.472;2022-08-20T12:37:34;4.50;;;1.98;;
17886;SDS011;9069;52.044;7.472;2022-08-20T12:40:03;4.75;;;1.48;;
17886;SDS011;9069;52.044;7.472;2022-08-20T12:42:32;8.05;;;2.00;;
17886;SDS011;9069;52.044;7.472;2022-08-20T12:44:59;6.50;;;1.55;;
17886;SDS011;9069;52.044;7.472;2022-08-20T12:47:27;6.68;;;1.95;;
17886;SDS011;9069;52.044;7.472;2022-08-20T12:50:01;6.30;;;1.83;;
17886;SDS011;9069;52.044;7.472;2022-08-20T12:52:32;4.68;;;1.73;;
17886;SDS011;9069;52.044;7.472;2022-08-20T12:54:59;3.72;;;1.55;;
17886;SDS011;9069;52.044;7.472;2022-08-20T12:57:28;4.05;;;1.20;;
17886;SDS011;9069;52.044;7.472;2022-08-20T13:00:07;6.95;;;1.85;;
17886;SDS011;9069;52.044;7.472;2022-08-20T13:02:37;5.53;;;1.58;;
17886;SDS011;9069;52.044;7.472;2022-08-20T13:05:06;4.18;;;1.25;;
17886;SDS011;9069;52.044;7.472;2022-08-20T13:07:35;3.35;;;1.52;;
17886;SDS011;9069;52.044;7.472;2022-08-20T13:10:03;6.28;;;1.70;;
17886;SDS011;9069;52.044;7.472;2022-08-20T13:12:31;3.42;;;1.45;;
17886;SDS011;9069;52.044;7.472;2022-08-20T13:14:58;3.33;;;1.33;;
17886;SDS011;9069;52.044;7.472;2022-08-20T13:17:25;3.47;;;1.33;;
17886;SDS011;9069;52.044;7.472;2022-08-20T13:20:05;6.70;;;1.92;;
17886;SDS011;9069;52.044;7.472;2022-08-20T13:22:34;4.28;;;1.60;;
17886;SDS011;9069;52.044;7.472;2022-08-20T13:25:01;3.90;;;1.35;;
17886;SDS011;9069;52.044;7.472;2022-08-20T13:27:29;6.68;;;1.77;;
17886;SDS011;9069;52.044;7.472;2022-08-20T13:29:56;6.88;;;1.80;;
17886;SDS011;9069;52.044;7.472;2022-08-20T13:32:24;5.53;;;1.70;;
17886;SDS011;9069;52.044;7.472;2022-08-20T13:34:51;3.88;;;1.60;;
17886;SDS011;9069;52.044;7.472;2022-08-20T13:37:19;8.55;;;1.50;;
17886;SDS011;9069;52.044;7.472;2022-08-20T13:39:52;5.25;;;1.70;;
17886;SDS011;9069;52.044;7.472;2022-08-20T13:42:19;6.93;;;1.58;;
17886;SDS011;9069;52.044;7.472;2022-08-20T13:44:46;4.15;;;1.35;;
17886;SDS011;9069;52.044;7.472;2022-08-20T13:49:45;5.70;;;1.90;;
17886;SDS011;9069;52.044;7.472;2022-08-20T13:52:13;5.15;;;1.67;;
17886;SDS011;9069;52.044;7.472;2022-08-20T13:54:42;6.85;;;1.67;;
17886;SDS011;9069;52.044;7.472;2022-08-20T13:57:13;7.47;;;1.58;;
17886;SDS011;9069;52.044;7.472;2022-08-20T13:59:45;4.55;;;1.75;;
17886;SDS011;9069;52.044;7.472;2022-08-20T14:02:14;4.72;;;1.52;;
17886;SDS011;9069;52.044;7.472;2022-08-20T14:04:42;5.35;;;1.83;;
17886;SDS011;9069;52.044;7.472;2022-08-20T14:09:41;5.50;;;1.45;;
17886;SDS011;9069;52.044;7.472;2022-08-20T14:12:10;4.88;;;1.67;;
17886;SDS011;9069;52.044;7.472;2022-08-20T14:14:38;4.68;;;1.48;;
17886;SDS011;9069;52.044;7.472;2022-08-20T14:19:51;4.43;;;1.60;;
17886;SDS011;9069;52.044;7.472;2022-08-20T14:22:26;6.22;;;1.45;;
17886;SDS011;9069;52.044;7.472;2022-08-20T14:24:53;3.63;;;1.35;;
17886;SDS011;9069;52.044;7.472;2022-08-20T14:27:20;5.43;;;1.55;;
17886;SDS011;9069;52.044;7.472;2022-08-20T14:29:55;4.25;;;1.50;;
17886;SDS011;9069;52.044;7.472;2022-08-20T14:32:23;3.58;;;1.50;;
17886;SDS011;9069;52.044;7.472;2022-08-20T14:34:50;4.60;;;1.63;;
17886;SDS011;9069;52.044;7.472;2022-08-20T14:37:20;5.93;;;1.63;;
17886;SDS011;9069;52.044;7.472;2022-08-20T14:39:51;4.93;;;1.33;;
17886;SDS011;9069;52.044;7.472;2022-08-20T14:42:19;6.55;;;1.73;;
17886;SDS011;9069;52.044;7.472;2022-08-20T14:44:49;6.72;;;1.45;;
17886;SDS011;9069;52.044;7.472;2022-08-20T14:49:51;6.13;;;1.73;;
17886;SDS011;9069;52.044;7.472;2022-08-20T14:52:21;6.63;;;1.75;;
17886;SDS011;9069;52.044;7.472;2022-08-20T14:54:53;8.82;;;1.45;;
17886;SDS011;9069;52.044;7.472;2022-08-20T14:57:20;6.03;;;1.80;;
17886;SDS011;9069;52.044;7.472;2022-08-20T14:59:48;7.50;;;1.88;;
17886;SDS011;9069;52.044;7.472;2022-08-20T15:02:17;5.38;;;1.73;;
17886;SDS011;9069;52.044;7.472;2022-08-20T15:04:44;7.00;;;1.58;;
17886;SDS011;9069;52.044;7.472;2022-08-20T15:07:23;7.13;;;1.50;;
17886;SDS011;9069;52.044;7.472;2022-08-20T15:09:52;4.20;;;1.70;;
17886;SDS011;9069;52.044;7.472;2022-08-20T15:12:20;8.13;;;1.58;;
17886;SDS011;9069;52.044;7.472;2022-08-20T15:14:47;5.72;;;1.75;;
17886;SDS011;9069;52.044;7.472;2022-08-20T15:17:24;4.13;;;1.45;;
17886;SDS011;9069;52.044;7.472;2022-08-20T15:19:53;3.35;;;1.48;;
17886;SDS011;9069;52.044;7.472;2022-08-20T15:22:21;6.53;;;1.67;;
17886;SDS011;9069;52.044;7.472;2022-08-20T15:24:48;4.32;;;1.95;;
17886;SDS011;9069;52.044;7.472;2022-08-20T15:27:21;4.20;;;1.30;;